sensor_id;sensor_type;location;lat;lon;timestamp;pressure;altitude;pressure_sealevel;temperature;humidity
26539;BME280;14205;43.200;24.170;2023-07-08T00:01:18;47489.09;;;-137.44;100.00
26539;BME280;14205;43.200;24.170;2023-07-08T00:03:44;48552.22;;;-137.44;100.00
26539;BME280;14205;43.200;24.170;2023-07-08T00:06:22;49325.25;;;-137.44;100.00
26539;BME280;14205;43.200;24.170;2023-07-08T00:08:48;50835.78;;;-137.44;100.00
26539;BME280;14205;43.200;24.170;2023-07-08T00:11:14;50807.75;;;-137.44;100.00
26539;BME280;14205;43.200;24.170;2023-07-08T00:13:40;51128.34;;;-137.44;100.00
26539;BME280;14205;43.200;24.170;2023-07-08T00:16:14;50701.53;;;-137.44;100.00
26539;BME280;14205;43.200;24.170;2023-07-08T00:18:40;48868.63;;;-137.44;100.00
26539;BME280;14205;43.200;24.170;2023-07-08T00:21:11;47921.50;;;-137.44;100.00
26539;BME280;14205;43.200;24.170;2023-07-08T00:23:40;48624.31;;;-137.44;100.00
26539;BME280;14205;43.200;24.170;2023-07-08T00:26:34;48163.75;;;-137.44;100.00
26539;BME280;14205;43.200;24.170;2023-07-08T00:29:00;47827.41;;;-137.44;100.00
26539;BME280;14205;43.200;24.170;2023-07-08T00:31:25;47973.56;;;-137.44;100.00
26539;BME280;14205;43.200;24.170;2023-07-08T00:33:55;48972.75;;;-137.44;100.00
26539;BME280;14205;43.200;24.170;2023-07-08T00:36:22;47603.19;;;-137.44;100.00
26539;BME280;14205;43.200;24.170;2023-07-08T00:38:48;46926.63;;;-137.44;100.00
26539;BME280;14205;43.200;24.170;2023-07-08T00:41:20;47651.25;;;-137.44;100.00
26539;BME280;14205;43.200;24.170;2023-07-08T00:43:52;47637.22;;;-137.44;100.00
26539;BME280;14205;43.200;24.170;2023-07-08T00:48:50;47276.91;;;-137.44;100.00
26539;BME280;14205;43.200;24.170;2023-07-08T00:51:19;47348.97;;;-137.44;100.00
26539;BME280;14205;43.200;24.170;2023-07-08T00:53:45;47463.06;;;-137.44;100.00
26539;BME280;14205;43.200;24.170;2023-07-08T00:56:18;47054.72;;;-137.44;100.00
26539;BME280;14205;43.200;24.170;2023-07-08T00:59:06;47260.88;;;-137.44;100.00
26539;BME280;14205;43.200;24.170;2023-07-08T01:01:37;47603.19;;;-137.44;100.00
26539;BME280;14205;43.200;24.170;2023-07-08T01:04:09;47304.91;;;-137.44;100.00
26539;BME280;14205;43.200;24.170;2023-07-08T01:06:37;47104.75;;;-137.44;100.00
26539;BME280;14205;43.200;24.170;2023-07-08T01:09:06;47423.03;;;-137.44;100.00
26539;BME280;14205;43.200;24.170;2023-07-08T01:11:33;46894.59;;;-137.44;100.00
26539;BME280;14205;43.200;24.170;2023-07-08T01:14:01;46660.44;;;-137.44;100.00
26539;BME280;14205;43.200;24.170;2023-07-08T01:16:28;46574.38;;;-137.44;100.00
26539;BME280;14205;43.200;24.170;2023-07-08T01:18:54;47002.69;;;-137.44;100.00
26539;BME280;14205;43.200;24.170;2023-07-08T01:21:36;47054.72;;;-137.44;100.00
26539;BME280;14205;43.200;24.170;2023-07-08T01:24:10;46566.38;;;-137.44;100.00
26539;BME280;14205;43.200;24.170;2023-07-08T01:26:40;46280.19;;;-137.44;100.00
26539;BME280;14205;43.200;24.170;2023-07-08T01:29:07;47234.88;;;-137.44;100.00
26539;BME280;14205;43.200;24.170;2023-07-08T01:31:33;55074.50;;;-137.44;100.00
26539;BME280;14205;43.200;24.170;2023-07-08T01:33:59;70888.91;;;-137.44;100.00
26539;BME280;14205;43.200;24.170;2023-07-08T01:36:30;69341.22;;;-137.44;100.00
26539;BME280;14205;43.200;24.170;2023-07-08T01:38:57;73986.34;;;-137.44;100.00
26539;BME280;14205;43.200;24.170;2023-07-08T01:41:22;80448.38;;;-137.44;100.00
26539;BME280;14205;43.200;24.170;2023-07-08T01:43:47;80707.13;;;-137.44;100.00
26539;BME280;14205;43.200;24.170;2023-07-08T01:46:23;77603.59;;;-137.44;100.00
26539;BME280;14205;43.200;24.170;2023-07-08T01:48:53;76569.72;;;-137.44;100.00
26539;BME280;14205;43.200;24.170;2023-07-08T01:51:19;75277.78;;;-137.44;100.00
26539;BME280;14205;43.200;24.170;2023-07-08T01:53:45;78637.78;;;-137.44;100.00
26539;BME280;14205;43.200;24.170;2023-07-08T01:56:12;75019.47;;;-137.44;100.00
26539;BME280;14205;43.200;24.170;2023-07-08T01:58:38;69599.13;;;-137.44;100.00
26539;BME280;14205;43.200;24.170;2023-07-08T02:01:04;72953.56;;;-137.44;100.00
26539;BME280;14205;43.200;24.170;2023-07-08T02:03:30;70630.91;;;-137.44;100.00
26539;BME280;14205;43.200;24.170;2023-07-08T02:05:56;70372.94;;;-137.44;100.00
26539;BME280;14205;43.200;24.170;2023-07-08T02:08:22;68309.84;;;-137.44;100.00
26539;BME280;14205;43.200;24.170;2023-07-08T02:10:51;69857.03;;;-137.44;100.00
26539;BME280;14205;43.200;24.170;2023-07-08T02:13:17;66247.97;;;-137.44;100.00
26539;BME280;14205;43.200;24.170;2023-07-08T02:15:43;66763.31;;;-137.44;100.00
26539;BME280;14205;43.200;24.170;2023-07-08T02:18:08;64702.41;;;-137.44;100.00
26539;BME280;14205;43.200;24.170;2023-07-08T02:20:34;61098.78;;;-137.44;100.00
26539;BME280;14205;43.200;24.170;2023-07-08T02:22:59;64959.94;;;-137.44;100.00
26539;BME280;14205;43.200;24.170;2023-07-08T02:25:25;65732.72;;;-137.44;100.00
26539;BME280;14205;43.200;24.170;2023-07-08T02:27:51;62642.72;;;-137.44;100.00
26539;BME280;14205;43.200;24.170;2023-07-08T02:30:16;68309.84;;;-137.44;100.00
26539;BME280;14205;43.200;24.170;2023-07-08T02:32:42;61870.69;;;-137.44;100.00
26539;BME280;14205;43.200;24.170;2023-07-08T02:35:14;60327.09;;;-137.44;100.00
26539;BME280;14205;43.200;24.170;2023-07-08T02:37:39;60841.53;;;-137.44;100.00
26539;BME280;14205;43.200;24.170;2023-07-08T02:40:05;64959.94;;;-137.44;100.00
26539;BME280;14205;43.200;24.170;2023-07-08T02:42:31;57555.22;;;-137.44;100.00
26539;BME280;14205;43.200;24.170;2023-07-08T02:44:57;56806.38;;;-137.44;100.00
26539;BME280;14205;43.200;24.170;2023-07-08T02:47:22;56503.28;;;-137.44;100.00
26539;BME280;14205;43.200;24.170;2023-07-08T02:49:47;52403.13;;;-137.44;100.00
26539;BME280;14205;43.200;24.170;2023-07-08T02:52:13;52058.34;;;-137.44;100.00
26539;BME280;14205;43.200;24.170;2023-07-08T02:54:38;55564.06;;;-137.44;100.00
26539;BME280;14205;43.200;24.170;2023-07-08T02:57:04;56282.50;;;-137.44;100.00
26539;BME280;14205;43.200;24.170;2023-07-08T02:59:29;51172.44;;;-137.44;100.00
26539;BME280;14205;43.200;24.170;2023-07-08T03:01:55;50867.84;;;-137.44;100.00
26539;BME280;14205;43.200;24.170;2023-07-08T03:04:20;50845.81;;;-137.44;100.00
26539;BME280;14205;43.200;24.170;2023-07-08T03:06:49;51228.56;;;-137.44;100.00
26539;BME280;14205;43.200;24.170;2023-07-08T03:09:15;50334.88;;;-137.44;100.00
26539;BME280;14205;43.200;24.170;2023-07-08T03:11:40;51002.09;;;-137.44;100.00
26539;BME280;14205;43.200;24.170;2023-07-08T03:14:06;50094.47;;;-137.44;100.00
26539;BME280;14205;43.200;24.170;2023-07-08T03:16:32;50423.03;;;-137.44;100.00
26539;BME280;14205;43.200;24.170;2023-07-08T03:18:58;48672.38;;;-137.44;100.00
26539;BME280;14205;43.200;24.170;2023-07-08T03:21:23;48556.22;;;-137.44;100.00
26539;BME280;14205;43.200;24.170;2023-07-08T03:23:50;48157.75;;;-137.44;100.00
26539;BME280;14205;43.200;24.170;2023-07-08T03:26:21;48684.38;;;-137.44;100.00
26539;BME280;14205;43.200;24.170;2023-07-08T03:28:48;47128.78;;;-137.44;100.00
26539;BME280;14205;43.200;24.170;2023-07-08T03:31:13;47591.19;;;-137.44;100.00
26539;BME280;14205;43.200;24.170;2023-07-08T03:33:39;47278.91;;;-137.44;100.00
26539;BME280;14205;43.200;24.170;2023-07-08T03:36:09;47519.13;;;-137.44;100.00
26539;BME280;14205;43.200;24.170;2023-07-08T03:38:37;46592.38;;;-137.44;100.00
26539;BME280;14205;43.200;24.170;2023-07-08T03:41:04;46866.56;;;-137.44;100.00
26539;BME280;14205;43.200;24.170;2023-07-08T03:43:29;46412.28;;;-137.44;100.00
26539;BME280;14205;43.200;24.170;2023-07-08T03:45:55;46380.25;;;-137.44;100.00
26539;BME280;14205;43.200;24.170;2023-07-08T03:48:20;46316.22;;;-137.44;100.00
26539;BME280;14205;43.200;24.170;2023-07-08T03:50:46;46070.09;;;-137.44;100.00
26539;BME280;14205;43.200;24.170;2023-07-08T03:53:11;46052.09;;;-137.44;100.00
26539;BME280;14205;43.200;24.170;2023-07-08T03:55:37;46194.16;;;-137.44;100.00
26539;BME280;14205;43.200;24.170;2023-07-08T03:58:02;45801.97;;;-137.44;100.00
26539;BME280;14205;43.200;24.170;2023-07-08T04:00:27;45878.00;;;-137.44;100.00
26539;BME280;14205;43.200;24.170;2023-07-08T04:02:53;45681.91;;;-137.44;100.00
26539;BME280;14205;43.200;24.170;2023-07-08T04:05:20;45713.94;;;-137.44;100.00
26539;BME280;14205;43.200;24.170;2023-07-08T04:07:47;45637.91;;;-137.44;100.00
26539;BME280;14205;43.200;24.170;2023-07-08T04:10:13;45725.94;;;-137.44;100.00
26539;BME280;14205;43.200;24.170;2023-07-08T04:12:39;45809.97;;;-137.44;100.00
26539;BME280;14205;43.200;24.170;2023-07-08T04:15:07;46074.09;;;-137.44;100.00
26539;BME280;14205;43.200;24.170;2023-07-08T04:17:33;45904.00;;;-137.44;100.00
26539;BME280;14205;43.200;24.170;2023-07-08T04:19:58;46004.06;;;-137.44;100.00
26539;BME280;14205;43.200;24.170;2023-07-08T04:22:26;45966.03;;;-137.44;100.00
26539;BME280;14205;43.200;24.170;2023-07-08T04:24:51;46156.13;;;-137.44;100.00
26539;BME280;14205;43.200;24.170;2023-07-08T04:27:17;45890.00;;;-137.44;100.00
26539;BME280;14205;43.200;24.170;2023-07-08T04:29:43;45870.00;;;-137.44;100.00
26539;BME280;14205;43.200;24.170;2023-07-08T04:32:09;45896.00;;;-137.44;100.00
26539;BME280;14205;43.200;24.170;2023-07-08T04:34:35;45888.00;;;-137.44;100.00
26539;BME280;14205;43.200;24.170;2023-07-08T04:37:00;45996.06;;;-137.44;100.00
26539;BME280;14205;43.200;24.170;2023-07-08T04:39:26;45886.00;;;-137.44;100.00
26539;BME280;14205;43.200;24.170;2023-07-08T04:41:52;45807.97;;;-137.44;100.00
26539;BME280;14205;43.200;24.170;2023-07-08T04:44:18;46252.19;;;-137.44;100.00
26539;BME280;14205;43.200;24.170;2023-07-08T04:46:56;46112.13;;;-137.44;100.00
26539;BME280;14205;43.200;24.170;2023-07-08T04:49:22;45984.06;;;-137.44;100.00
26539;BME280;14205;43.200;24.170;2023-07-08T04:51:48;45659.91;;;-137.44;100.00
26539;BME280;14205;43.200;24.170;2023-07-08T04:54:14;45545.88;;;-137.44;100.00
26539;BME280;14205;43.200;24.170;2023-07-08T04:56:41;45515.88;;;-137.44;100.00
26539;BME280;14205;43.200;24.170;2023-07-08T04:59:09;45880.00;;;-137.44;100.00
26539;BME280;14205;43.200;24.170;2023-07-08T05:01:35;45397.81;;;-137.44;100.00
26539;BME280;14205;43.200;24.170;2023-07-08T05:04:00;45281.78;;;-137.44;100.00
26539;BME280;14205;43.200;24.170;2023-07-08T05:06:26;45413.84;;;-137.44;100.00
26539;BME280;14205;43.200;24.170;2023-07-08T05:08:53;45281.78;;;-137.44;100.00
26539;BME280;14205;43.200;24.170;2023-07-08T05:11:18;45233.78;;;-137.44;100.00
26539;BME280;14205;43.200;24.170;2023-07-08T05:13:43;45293.81;;;-137.44;100.00
26539;BME280;14205;43.200;24.170;2023-07-08T05:16:09;45333.81;;;-137.44;100.00
26539;BME280;14205;43.200;24.170;2023-07-08T05:18:34;45253.78;;;-137.44;100.00
26539;BME280;14205;43.200;24.170;2023-07-08T05:21:00;45289.81;;;-137.44;100.00
26539;BME280;14205;43.200;24.170;2023-07-08T05:23:26;45169.78;;;-137.44;100.00
26539;BME280;14205;43.200;24.170;2023-07-08T05:25:51;45215.78;;;-137.44;100.00
26539;BME280;14205;43.200;24.170;2023-07-08T05:28:17;45147.75;;;-137.44;100.00
26539;BME280;14205;43.200;24.170;2023-07-08T05:30:42;45177.78;;;-137.44;100.00
26539;BME280;14205;43.200;24.170;2023-07-08T05:33:08;45173.78;;;-137.44;100.00
26539;BME280;14205;43.200;24.170;2023-07-08T05:35:34;45183.78;;;-137.44;100.00
26539;BME280;14205;43.200;24.170;2023-07-08T05:37:59;45165.78;;;-137.44;100.00
26539;BME280;14205;43.200;24.170;2023-07-08T05:40:25;45193.78;;;-137.44;100.00
26539;BME280;14205;43.200;24.170;2023-07-08T05:42:50;45111.75;;;-137.44;100.00
26539;BME280;14205;43.200;24.170;2023-07-08T05:45:16;45101.75;;;-137.44;100.00
26539;BME280;14205;43.200;24.170;2023-07-08T05:47:41;45083.75;;;-137.44;100.00
26539;BME280;14205;43.200;24.170;2023-07-08T05:50:07;45095.75;;;-137.44;100.00
26539;BME280;14205;43.200;24.170;2023-07-08T05:52:33;45045.75;;;-137.44;100.00
26539;BME280;14205;43.200;24.170;2023-07-08T05:54:58;45045.75;;;-137.44;100.00
26539;BME280;14205;43.200;24.170;2023-07-08T05:57:24;45053.75;;;-137.44;100.00
26539;BME280;14205;43.200;24.170;2023-07-08T05:59:49;45017.75;;;-137.44;100.00
26539;BME280;14205;43.200;24.170;2023-07-08T06:02:16;44975.72;;;-137.44;100.00
26539;BME280;14205;43.200;24.170;2023-07-08T06:04:41;44967.72;;;-137.44;100.00
26539;BME280;14205;43.200;24.170;2023-07-08T06:07:07;44997.75;;;-137.44;100.00
26539;BME280;14205;43.200;24.170;2023-07-08T06:09:32;44961.72;;;-137.44;100.00
26539;BME280;14205;43.200;24.170;2023-07-08T06:11:58;44977.72;;;-137.44;100.00
26539;BME280;14205;43.200;24.170;2023-07-08T06:14:23;44959.72;;;-137.44;100.00
26539;BME280;14205;43.200;24.170;2023-07-08T06:16:49;44937.72;;;-137.44;100.00
26539;BME280;14205;43.200;24.170;2023-07-08T06:19:14;44961.72;;;-137.44;100.00
26539;BME280;14205;43.200;24.170;2023-07-08T06:21:42;44993.72;;;-137.44;100.00
26539;BME280;14205;43.200;24.170;2023-07-08T06:24:07;45033.75;;;-137.44;100.00
26539;BME280;14205;43.200;24.170;2023-07-08T06:26:33;45041.75;;;-137.44;100.00
26539;BME280;14205;43.200;24.170;2023-07-08T06:28:59;45111.75;;;-137.44;100.00
26539;BME280;14205;43.200;24.170;2023-07-08T06:31:24;45085.75;;;-137.44;100.00
26539;BME280;14205;43.200;24.170;2023-07-08T06:33:50;45067.75;;;-137.44;100.00
26539;BME280;14205;43.200;24.170;2023-07-08T06:36:15;45099.75;;;-137.44;100.00
26539;BME280;14205;43.200;24.170;2023-07-08T06:38:41;45045.75;;;-137.44;100.00
26539;BME280;14205;43.200;24.170;2023-07-08T06:41:06;45075.75;;;-137.44;100.00
26539;BME280;14205;43.200;24.170;2023-07-08T06:43:32;45049.75;;;-137.44;100.00
26539;BME280;14205;43.200;24.170;2023-07-08T06:45:57;45061.75;;;-137.44;100.00
26539;BME280;14205;43.200;24.170;2023-07-08T06:48:23;45061.75;;;-137.44;100.00
26539;BME280;14205;43.200;24.170;2023-07-08T06:50:49;45065.75;;;-137.44;100.00
26539;BME280;14205;43.200;24.170;2023-07-08T06:53:15;45045.75;;;-137.44;100.00
26539;BME280;14205;43.200;24.170;2023-07-08T06:55:40;45001.75;;;-137.44;100.00
26539;BME280;14205;43.200;24.170;2023-07-08T06:58:06;45005.75;;;-137.44;100.00
26539;BME280;14205;43.200;24.170;2023-07-08T07:00:31;44967.72;;;-137.44;100.00
26539;BME280;14205;43.200;24.170;2023-07-08T07:02:57;44957.72;;;-137.44;100.00
26539;BME280;14205;43.200;24.170;2023-07-08T07:05:22;44939.72;;;-137.44;100.00
26539;BME280;14205;43.200;24.170;2023-07-08T07:07:48;44975.72;;;-137.44;100.00
26539;BME280;14205;43.200;24.170;2023-07-08T07:10:13;44907.72;;;-137.44;100.00
26539;BME280;14205;43.200;24.170;2023-07-08T07:12:39;44957.72;;;-137.44;100.00
26539;BME280;14205;43.200;24.170;2023-07-08T07:15:05;44917.72;;;-137.44;100.00
26539;BME280;14205;43.200;24.170;2023-07-08T07:17:31;44935.72;;;-137.44;100.00
26539;BME280;14205;43.200;24.170;2023-07-08T07:19:56;44917.72;;;-137.44;100.00
26539;BME280;14205;43.200;24.170;2023-07-08T07:22:22;44867.72;;;-137.44;100.00
26539;BME280;14205;43.200;24.170;2023-07-08T07:24:48;44887.72;;;-137.44;100.00
26539;BME280;14205;43.200;24.170;2023-07-08T07:27:13;44929.72;;;-137.44;100.00
26539;BME280;14205;43.200;24.170;2023-07-08T07:29:49;44913.72;;;-137.44;100.00
26539;BME280;14205;43.200;24.170;2023-07-08T07:32:17;44897.72;;;-137.44;100.00
26539;BME280;14205;43.200;24.170;2023-07-08T07:34:42;44721.69;;;-137.44;100.00
26539;BME280;14205;43.200;24.170;2023-07-08T07:37:11;44891.72;;;-137.44;98.01
26539;BME280;14205;43.200;24.170;2023-07-08T07:39:37;44861.72;;;-137.44;98.12
26539;BME280;14205;43.200;24.170;2023-07-08T07:42:03;44857.72;;;-137.44;98.66
26539;BME280;14205;43.200;24.170;2023-07-08T07:44:28;44821.72;;;-137.44;98.25
26539;BME280;14205;43.200;24.170;2023-07-08T07:46:54;44883.72;;;-137.44;96.91
26539;BME280;14205;43.200;24.170;2023-07-08T07:49:20;44873.72;;;-137.44;95.72
26539;BME280;14205;43.200;24.170;2023-07-08T07:51:46;44977.72;;;-137.44;91.86
26539;BME280;14205;43.200;24.170;2023-07-08T07:54:11;44953.72;;;-137.44;92.08
26539;BME280;14205;43.200;24.170;2023-07-08T07:56:37;44893.72;;;-137.44;96.29
26539;BME280;14205;43.200;24.170;2023-07-08T07:59:03;44917.72;;;-137.44;93.57
26539;BME280;14205;43.200;24.170;2023-07-08T08:01:28;44977.72;;;-137.44;92.92
26539;BME280;14205;43.200;24.170;2023-07-08T08:03:54;44937.72;;;-137.44;94.47
26539;BME280;14205;43.200;24.170;2023-07-08T08:06:19;44945.72;;;-137.44;94.49
26539;BME280;14205;43.200;24.170;2023-07-08T08:08:45;44965.72;;;-137.44;91.48
26539;BME280;14205;43.200;24.170;2023-07-08T08:11:11;45035.75;;;-137.44;89.51
26539;BME280;14205;43.200;24.170;2023-07-08T08:13:37;44929.72;;;-137.44;91.70
26539;BME280;14205;43.200;24.170;2023-07-08T08:16:03;44845.72;;;-137.44;93.76
26539;BME280;14205;43.200;24.170;2023-07-08T08:18:29;44897.72;;;-137.44;91.47
26539;BME280;14205;43.200;24.170;2023-07-08T08:20:56;44965.72;;;-137.44;87.84
26539;BME280;14205;43.200;24.170;2023-07-08T08:23:22;44833.72;;;-137.44;90.86
26539;BME280;14205;43.200;24.170;2023-07-08T08:25:47;44775.72;;;-137.44;92.28
26539;BME280;14205;43.200;24.170;2023-07-08T08:28:13;44805.72;;;-137.44;88.82
26539;BME280;14205;43.200;24.170;2023-07-08T08:30:38;45029.75;;;-137.44;87.16
26539;BME280;14205;43.200;24.170;2023-07-08T08:33:04;44947.72;;;-137.44;87.62
26539;BME280;14205;43.200;24.170;2023-07-08T08:35:30;45103.75;;;-137.44;84.69
26539;BME280;14205;43.200;24.170;2023-07-08T08:37:55;44985.72;;;-137.44;85.98
26539;BME280;14205;43.200;24.170;2023-07-08T08:40:21;44993.72;;;-137.44;86.67
26539;BME280;14205;43.200;24.170;2023-07-08T08:45:23;44941.72;;;-137.44;85.24
26539;BME280;14205;43.200;24.170;2023-07-08T08:47:56;45019.75;;;-137.44;85.20
26539;BME280;14205;43.200;24.170;2023-07-08T08:50:32;45091.75;;;-137.44;85.74
26539;BME280;14205;43.200;24.170;2023-07-08T08:53:03;44973.72;;;-137.44;85.55
26539;BME280;14205;43.200;24.170;2023-07-08T08:55:31;44891.72;;;-137.44;83.74
26539;BME280;14205;43.200;24.170;2023-07-08T09:00:55;45229.78;;;-137.44;75.14
26539;BME280;14205;43.200;24.170;2023-07-08T09:06:10;45043.75;;;-137.44;80.83
26539;BME280;14205;43.200;24.170;2023-07-08T09:08:36;45185.78;;;-137.44;76.72
26539;BME280;14205;43.200;24.170;2023-07-08T09:13:59;45193.78;;;-137.44;81.43
26539;BME280;14205;43.200;24.170;2023-07-08T09:19:22;45277.78;;;-137.44;78.89
26539;BME280;14205;43.200;24.170;2023-07-08T09:24:24;45193.78;;;-137.44;77.71
26539;BME280;14205;43.200;24.170;2023-07-08T09:26:54;45143.75;;;-137.44;81.82
26539;BME280;14205;43.200;24.170;2023-07-08T09:29:22;45113.75;;;-137.44;80.57
26539;BME280;14205;43.200;24.170;2023-07-08T09:31:47;45151.75;;;-137.44;79.25
26539;BME280;14205;43.200;24.170;2023-07-08T09:34:15;45345.81;;;-137.44;77.13
26539;BME280;14205;43.200;24.170;2023-07-08T09:36:44;45223.78;;;-137.44;79.98
26539;BME280;14205;43.200;24.170;2023-07-08T09:39:19;45121.75;;;-137.44;82.56
26539;BME280;14205;43.200;24.170;2023-07-08T09:41:47;44997.75;;;-137.44;84.78
26539;BME280;14205;43.200;24.170;2023-07-08T09:44:23;45265.78;;;-137.44;75.47
26539;BME280;14205;43.200;24.170;2023-07-08T09:46:54;45077.75;;;-137.44;80.11
26539;BME280;14205;43.200;24.170;2023-07-08T09:49:28;45159.78;;;-137.44;75.54
26539;BME280;14205;43.200;24.170;2023-07-08T09:51:54;45193.78;;;-137.44;77.88
26539;BME280;14205;43.200;24.170;2023-07-08T09:54:21;45161.78;;;-137.44;77.66
26539;BME280;14205;43.200;24.170;2023-07-08T09:57:05;45229.78;;;-137.44;75.27
26539;BME280;14205;43.200;24.170;2023-07-08T09:59:53;45205.78;;;-137.44;75.93
26539;BME280;14205;43.200;24.170;2023-07-08T10:02:27;45209.78;;;-137.44;79.23
26539;BME280;14205;43.200;24.170;2023-07-08T10:04:57;45275.78;;;-137.44;78.49
26539;BME280;14205;43.200;24.170;2023-07-08T10:07:23;45219.78;;;-137.44;79.52
26539;BME280;14205;43.200;24.170;2023-07-08T10:09:51;45177.78;;;-137.44;81.84
26539;BME280;14205;43.200;24.170;2023-07-08T10:12:20;45277.78;;;-137.44;77.54
26539;BME280;14205;43.200;24.170;2023-07-08T10:14:50;45297.81;;;-137.44;75.16
26539;BME280;14205;43.200;24.170;2023-07-08T10:17:19;45389.81;;;-137.44;74.95
26539;BME280;14205;43.200;24.170;2023-07-08T10:19:45;45193.78;;;-137.44;75.84
26539;BME280;14205;43.200;24.170;2023-07-08T10:27:25;45273.78;;;-137.44;76.39
26539;BME280;14205;43.200;24.170;2023-07-08T10:30:14;45439.84;;;-137.44;72.49
26539;BME280;14205;43.200;24.170;2023-07-08T10:44:24;45735.94;;;-137.44;63.66
26539;BME280;14205;43.200;24.170;2023-07-08T10:47:15;45846.00;;;-137.44;61.54
26539;BME280;14205;43.200;24.170;2023-07-08T10:50:19;45589.88;;;-137.44;66.68
26539;BME280;14205;43.200;24.170;2023-07-08T11:06:17;46314.22;;;-137.44;58.20
26539;BME280;14205;43.200;24.170;2023-07-08T11:08:55;46230.16;;;-137.44;60.51
26539;BME280;14205;43.200;24.170;2023-07-08T11:13:55;45229.78;;;-137.44;85.70
26539;BME280;14205;43.200;24.170;2023-07-08T11:16:28;44913.72;;;-137.44;100.00
26539;BME280;14205;43.200;24.170;2023-07-08T11:19:00;75019.47;;;-137.44;100.00
26539;BME280;14205;43.200;24.170;2023-07-08T11:21:46;100427.84;;;-137.44;100.00
26539;BME280;14205;43.200;24.170;2023-07-08T11:26:48;118167.97;;;-137.44;100.00
26539;BME280;14205;43.200;24.170;2023-07-08T11:29:42;118429.53;;;-137.44;100.00
26539;BME280;14205;43.200;24.170;2023-07-08T11:32:20;118691.09;;;-137.44;100.00
26539;BME280;14205;43.200;24.170;2023-07-08T11:34:48;116860.50;;;-137.44;100.00
26539;BME280;14205;43.200;24.170;2023-07-08T11:37:15;114769.53;;;-137.44;100.00
26539;BME280;14205;43.200;24.170;2023-07-08T11:39:43;108764.94;;;-137.44;100.00
26539;BME280;14205;43.200;24.170;2023-07-08T11:44:51;113202.13;;;-137.44;100.00
26539;BME280;14205;43.200;24.170;2023-07-08T11:47:33;116599.06;;;-137.44;100.00
26539;BME280;14205;43.200;24.170;2023-07-08T11:50:00;118429.53;;;-137.44;100.00
26539;BME280;14205;43.200;24.170;2023-07-08T11:52:26;115292.16;;;-137.44;100.00
26539;BME280;14205;43.200;24.170;2023-07-08T11:55:02;118429.53;;;-137.44;100.00
26539;BME280;14205;43.200;24.170;2023-07-08T11:57:37;118693.16;;;-137.44;100.00
26539;BME280;14205;43.200;24.170;2023-07-08T12:00:19;117644.94;;;-137.44;100.00
26539;BME280;14205;43.200;24.170;2023-07-08T12:02:57;117644.94;;;-137.44;100.00
26539;BME280;14205;43.200;24.170;2023-07-08T12:05:35;106157.44;;;-137.44;100.00
26539;BME280;14205;43.200;24.170;2023-07-08T12:08:02;104333.38;;;-137.44;100.00
26539;BME280;14205;43.200;24.170;2023-07-08T12:10:51;96006.88;;;-137.44;100.00
26539;BME280;14205;43.200;24.170;2023-07-08T12:13:23;104072.88;;;-137.44;100.00
26539;BME280;14205;43.200;24.170;2023-07-08T12:15:49;86145.03;;;-137.44;100.00
26539;BME280;14205;43.200;24.170;2023-07-08T12:18:18;100948.31;;;-137.44;100.00
26539;BME280;14205;43.200;24.170;2023-07-08T12:20:46;97566.56;;;-137.44;100.00
26539;BME280;14205;43.200;24.170;2023-07-08T12:23:21;61870.69;;;-137.44;100.00
26539;BME280;14205;43.200;24.170;2023-07-08T12:25:47;44223.69;;;-137.44;100.00
26539;BME280;14205;43.200;24.170;2023-07-08T12:28:14;43781.75;;;-137.44;99.56
26539;BME280;14205;43.200;24.170;2023-07-08T12:30:42;43745.75;;;-137.44;97.38
26539;BME280;14205;43.200;24.170;2023-07-08T12:33:13;43677.78;;;-137.44;95.25
26539;BME280;14205;43.200;24.170;2023-07-08T12:35:41;43849.72;;;-137.44;99.63
26539;BME280;14205;43.200;24.170;2023-07-08T12:40:40;43813.75;;;-137.44;99.57
26539;BME280;14205;43.200;24.170;2023-07-08T12:43:09;43973.72;;;-137.44;100.00
26539;BME280;14205;43.200;24.170;2023-07-08T12:45:36;43991.72;;;-137.44;100.00
26539;BME280;14205;43.200;24.170;2023-07-08T12:48:02;46758.50;;;-137.44;100.00
26539;BME280;14205;43.200;24.170;2023-07-08T12:50:28;46646.41;;;-137.44;100.00
26539;BME280;14205;43.200;24.170;2023-07-08T12:52:53;46814.53;;;-137.44;100.00
26539;BME280;14205;43.200;24.170;2023-07-08T12:55:19;49267.16;;;-137.44;100.00
26539;BME280;14205;43.200;24.170;2023-07-08T12:57:47;57041.25;;;-137.44;100.00
26539;BME280;14205;43.200;24.170;2023-07-08T13:00:25;106418.13;;;-137.44;100.00
26539;BME280;14205;43.200;24.170;2023-07-08T13:03:05;97826.59;;;-137.44;100.00
26539;BME280;14205;43.200;24.170;2023-07-08T13:05:31;100167.63;;;-137.44;100.00
26539;BME280;14205;43.200;24.170;2023-07-08T13:07:58;106418.13;;;-137.44;100.00
26539;BME280;14205;43.200;24.170;2023-07-08T13:10:25;116599.06;;;-137.44;100.00
26539;BME280;14205;43.200;24.170;2023-07-08T13:12:57;116599.06;;;-137.44;100.00
26539;BME280;14205;43.200;24.170;2023-07-08T13:15:33;118167.97;;;-137.44;100.00
26539;BME280;14205;43.200;24.170;2023-07-08T13:18:01;112940.94;;;-137.44;100.00
26539;BME280;14205;43.200;24.170;2023-07-08T13:20:27;117906.44;;;-137.44;100.00
26539;BME280;14205;43.200;24.170;2023-07-08T13:22:57;111374.34;;;-137.44;100.00
26539;BME280;14205;43.200;24.170;2023-07-08T13:25:28;114246.97;;;-137.44;100.00
26539;BME280;14205;43.200;24.170;2023-07-08T13:27:56;110591.31;;;-137.44;100.00